createdAt,value
2018-06-28T00:00:56.727Z,16.50
2018-06-28T00:01:56.739Z,16.34
2018-06-28T00:02:56.705Z,16.41
2018-06-28T00:03:56.715Z,16.37
2018-06-28T00:04:56.681Z,16.32
2018-06-28T00:05:56.625Z,16.36
2018-06-28T00:06:56.694Z,16.33
2018-06-28T00:07:56.650Z,16.29
2018-06-28T00:08:56.775Z,16.40
2018-06-28T00:09:56.642Z,16.36
2018-06-28T00:10:56.627Z,16.33
2018-06-28T00:11:56.647Z,16.25
2018-06-28T00:12:56.596Z,16.23
2018-06-28T00:13:56.592Z,16.16
2018-06-28T00:14:56.575Z,16.16
2018-06-28T00:15:56.582Z,16.14
2018-06-28T00:16:56.571Z,16.26
2018-06-28T00:17:56.553Z,16.23
2018-06-28T00:18:56.544Z,16.18
2018-06-28T00:19:56.513Z,16.16
2018-06-28T00:20:56.504Z,16.17
2018-06-28T00:21:56.522Z,16.08
2018-06-28T00:22:56.488Z,16.08
2018-06-28T00:23:56.481Z,16.01
2018-06-28T00:24:56.470Z,16.03
2018-06-28T00:25:56.460Z,16.03
2018-06-28T00:26:56.544Z,15.99
2018-06-28T00:27:56.436Z,16.06
2018-06-28T00:28:56.443Z,16.04
2018-06-28T00:29:56.418Z,15.96
2018-06-28T00:30:56.398Z,16.11
2018-06-28T00:31:56.389Z,15.99
2018-06-28T00:32:56.428Z,15.95
2018-06-28T00:33:56.326Z,15.99
2018-06-28T00:34:56.356Z,15.98
2018-06-28T00:35:56.348Z,15.99
2018-06-28T00:36:56.332Z,15.98
2018-06-28T00:37:56.386Z,15.96
2018-06-28T00:38:56.321Z,15.98
2018-06-28T00:39:56.329Z,15.96
2018-06-28T00:40:56.258Z,15.95
2018-06-28T00:41:56.287Z,16.06
2018-06-28T00:42:56.297Z,16.11
2018-06-28T00:43:56.283Z,16.06
2018-06-28T00:44:56.251Z,16.07
2018-06-28T00:45:56.247Z,15.96
2018-06-28T00:46:56.225Z,16.01
2018-06-28T00:47:56.250Z,16.01
2018-06-28T00:48:56.211Z,15.98
2018-06-28T00:49:56.193Z,15.98
2018-06-28T00:50:56.193Z,15.92
2018-06-28T00:51:56.176Z,15.88
2018-06-28T00:52:56.188Z,15.86
2018-06-28T00:53:56.155Z,15.80
2018-06-28T00:54:56.145Z,15.92
2018-06-28T00:55:56.129Z,15.76
2018-06-28T00:56:56.117Z,15.71
2018-06-28T00:57:56.150Z,15.76
2018-06-28T00:58:56.099Z,15.77
2018-06-28T00:59:56.117Z,15.76
2018-06-28T01:00:56.032Z,15.71
2018-06-28T01:01:56.070Z,15.68
2018-06-28T01:02:56.079Z,15.66
2018-06-28T01:03:56.050Z,15.73
2018-06-28T01:04:55.990Z,15.48
2018-06-28T01:05:56.036Z,15.52
2018-06-28T01:06:56.016Z,15.44
2018-06-28T01:07:56.034Z,15.41
2018-06-28T01:08:55.961Z,15.44
2018-06-28T01:09:55.938Z,15.40
2018-06-28T01:10:56.008Z,15.40
2018-06-28T01:11:55.968Z,15.46
2018-06-28T01:12:55.947Z,15.37
2018-06-28T01:13:55.979Z,15.33
2018-06-28T01:14:55.920Z,15.34
2018-06-28T01:15:55.925Z,15.33
2018-06-28T01:16:55.905Z,15.37
2018-06-28T01:17:55.914Z,15.43
2018-06-28T01:18:55.884Z,15.25
2018-06-28T01:19:55.868Z,15.33
2018-06-28T01:20:55.860Z,15.30
2018-06-28T01:21:55.802Z,15.31
2018-06-28T01:22:55.856Z,15.31
2018-06-28T01:23:55.826Z,15.31
2018-06-28T01:24:55.824Z,15.28
2018-06-28T01:25:55.818Z,15.38
2018-06-28T01:26:55.792Z,15.27
2018-06-28T01:27:55.773Z,15.27
2018-06-28T01:28:55.828Z,15.25
2018-06-28T01:29:55.776Z,15.20
2018-06-28T01:30:55.748Z,15.22
2018-06-28T01:31:55.753Z,15.19
2018-06-28T01:32:55.756Z,15.13
2018-06-28T01:33:55.735Z,15.15
2018-06-28T01:34:55.712Z,15.11
2018-06-28T01:35:55.696Z,15.13
2018-06-28T01:36:55.687Z,15.09
2018-06-28T01:37:55.806Z,15.11
2018-06-28T01:38:55.671Z,15.01
2018-06-28T01:39:55.656Z,15.04
2018-06-28T01:40:55.638Z,15.04
2018-06-28T01:41:55.632Z,14.98
2018-06-28T01:42:55.625Z,15.03
2018-06-28T01:43:55.635Z,15.09
2018-06-28T01:44:55.663Z,15.03
2018-06-28T01:45:55.586Z,15.04
2018-06-28T01:46:55.663Z,15.09
2018-06-28T01:47:55.531Z,15.04
2018-06-28T01:48:55.608Z,15.04
2018-06-28T01:49:55.558Z,14.97
2018-06-28T01:50:55.529Z,14.86
2018-06-28T01:51:55.518Z,14.93
2018-06-28T01:52:55.520Z,14.91
2018-06-28T01:53:55.540Z,14.87
2018-06-28T01:54:55.489Z,14.90
2018-06-28T01:55:55.492Z,14.90
2018-06-28T01:56:55.463Z,14.98
2018-06-28T01:57:55.476Z,15.00
2018-06-28T01:58:55.463Z,14.87
2018-06-28T01:59:55.436Z,15.01
2018-06-28T02:00:55.382Z,14.98
2018-06-28T02:01:55.369Z,14.87
2018-06-28T02:02:55.417Z,14.87
2018-06-28T02:03:55.414Z,14.91
2018-06-28T02:04:55.380Z,14.90
2018-06-28T02:05:55.332Z,14.90
2018-06-28T02:06:55.319Z,14.80
2018-06-28T02:07:55.346Z,14.85
2018-06-28T02:08:55.430Z,14.82
2018-06-28T02:09:55.330Z,14.82
2018-06-28T02:10:55.314Z,14.86
2018-06-28T02:11:55.304Z,14.72
2018-06-28T02:12:55.252Z,14.74
2018-06-28T02:13:55.314Z,14.67
2018-06-28T02:14:55.267Z,14.69
2018-06-28T02:15:55.216Z,14.64
2018-06-28T02:16:55.246Z,14.67
2018-06-28T02:17:55.246Z,14.63
2018-06-28T02:18:55.243Z,14.63
2018-06-28T02:19:55.218Z,14.66
2018-06-28T02:20:55.162Z,14.63
2018-06-28T02:21:55.163Z,14.74
2018-06-28T02:22:55.189Z,14.56
2018-06-28T02:23:55.199Z,14.53
2018-06-28T02:24:55.155Z,14.54
2018-06-28T02:25:55.150Z,14.57
2018-06-28T02:26:55.153Z,14.54
2018-06-28T02:27:55.138Z,14.60
2018-06-28T02:28:55.146Z,14.54
2018-06-28T02:29:55.117Z,14.59
2018-06-28T02:30:55.101Z,14.57
2018-06-28T02:31:55.090Z,14.57
2018-06-28T02:32:55.082Z,14.60
2018-06-28T02:33:55.100Z,14.52
2018-06-28T02:34:55.056Z,14.56
2018-06-28T02:35:55.002Z,14.56
2018-06-28T02:36:55.068Z,14.48
2018-06-28T02:37:55.020Z,14.45
2018-06-28T02:38:55.029Z,14.46
2018-06-28T02:39:55.027Z,14.45
2018-06-28T02:40:54.991Z,14.38
2018-06-28T02:41:54.989Z,14.34
2018-06-28T02:42:54.965Z,14.20
2018-06-28T02:43:55.020Z,14.30
2018-06-28T02:44:54.946Z,14.29
2018-06-28T02:45:54.949Z,14.38
2018-06-28T02:46:54.924Z,14.31
2018-06-28T02:47:54.908Z,14.35
2018-06-28T02:48:54.985Z,14.35
2018-06-28T02:49:54.888Z,14.31
2018-06-28T02:50:54.882Z,14.29
2018-06-28T02:51:54.825Z,14.30
2018-06-28T02:52:54.863Z,14.21
2018-06-28T02:53:54.865Z,14.17
2018-06-28T02:54:54.836Z,14.16
2018-06-28T02:55:54.828Z,14.26
2018-06-28T02:56:54.823Z,14.26
2018-06-28T02:57:54.817Z,14.29
2018-06-28T02:58:54.818Z,14.20
2018-06-28T02:59:54.737Z,14.30
2018-06-28T03:00:54.764Z,14.27
2018-06-28T03:01:54.719Z,14.29
2018-06-28T03:02:54.708Z,14.17
2018-06-28T03:03:54.761Z,14.24
2018-06-28T03:04:54.793Z,14.16
2018-06-28T03:05:54.723Z,14.21
2018-06-28T03:06:54.706Z,14.23
2018-06-28T03:07:54.697Z,14.24
2018-06-28T03:08:54.712Z,14.24
2018-06-28T03:09:54.678Z,14.26
2018-06-28T03:10:54.673Z,14.23
2018-06-28T03:11:54.605Z,14.19
2018-06-28T03:12:54.641Z,14.21
2018-06-28T03:13:54.629Z,14.17
2018-06-28T03:14:54.639Z,14.19
2018-06-28T03:15:54.562Z,14.23
2018-06-28T03:16:54.601Z,14.23
2018-06-28T03:17:54.583Z,14.21
2018-06-28T03:18:54.578Z,14.21
2018-06-28T03:19:54.597Z,14.26
2018-06-28T03:20:54.649Z,14.19
2018-06-28T03:21:54.540Z,14.17
2018-06-28T03:22:54.527Z,14.21
2018-06-28T03:23:54.560Z,14.19
2018-06-28T03:24:54.530Z,14.19
2018-06-28T03:25:54.494Z,14.17
2018-06-28T03:26:54.508Z,14.12
2018-06-28T03:27:54.478Z,14.11
2018-06-28T03:28:54.462Z,14.11
2018-06-28T03:29:54.429Z,14.16
2018-06-28T03:30:54.512Z,14.13
2018-06-28T03:31:54.425Z,14.11
2018-06-28T03:32:54.426Z,14.09
2018-06-28T03:33:54.403Z,14.17
2018-06-28T03:34:54.372Z,14.13
2018-06-28T03:35:54.402Z,14.02
2018-06-28T03:36:54.388Z,14.05
2018-06-28T03:37:54.442Z,13.96
2018-06-28T03:38:54.368Z,14.01
2018-06-28T03:39:54.365Z,13.96
2018-06-28T03:40:54.346Z,13.90
2018-06-28T03:41:54.290Z,13.93
2018-06-28T03:42:54.318Z,13.90
2018-06-28T03:43:54.308Z,13.99
2018-06-28T03:44:54.369Z,13.98
2018-06-28T03:45:54.350Z,14.01
2018-06-28T03:46:54.275Z,13.94
2018-06-28T03:47:54.269Z,13.99
2018-06-28T03:48:54.245Z,13.91
2018-06-28T03:49:54.263Z,13.99
2018-06-28T03:50:54.229Z,13.93
2018-06-28T03:51:54.214Z,14.02
2018-06-28T03:52:54.208Z,13.94
2018-06-28T03:53:54.252Z,13.96
2018-06-28T03:54:54.208Z,13.88
2018-06-28T03:55:54.170Z,14.01
2018-06-28T03:56:54.149Z,14.04
2018-06-28T03:57:54.138Z,13.98
2018-06-28T03:58:54.138Z,13.99
2018-06-28T03:59:54.146Z,13.99
2018-06-28T04:00:54.153Z,13.93
2018-06-28T04:01:54.133Z,13.94
2018-06-28T04:02:54.084Z,13.99
2018-06-28T04:03:54.080Z,13.99
2018-06-28T04:04:54.093Z,13.98
2018-06-28T04:05:54.065Z,14.05
2018-06-28T04:06:54.055Z,14.05
2018-06-28T04:07:54.034Z,14.05
2018-06-28T04:08:54.025Z,14.01
2018-06-28T04:09:54.029Z,14.05
2018-06-28T04:10:54.003Z,14.16
2018-06-28T04:11:53.944Z,14.12
2018-06-28T04:12:54.000Z,14.24
2018-06-28T04:13:53.969Z,14.17
2018-06-28T04:14:53.984Z,14.21
2018-06-28T04:15:53.946Z,14.26
2018-06-28T04:16:54.002Z,14.29
2018-06-28T04:17:53.945Z,14.30
2018-06-28T04:18:53.914Z,14.48
2018-06-28T04:19:53.958Z,14.38
2018-06-28T04:20:53.897Z,14.44
2018-06-28T04:21:53.909Z,14.44
2018-06-28T04:22:53.827Z,14.45
2018-06-28T04:23:53.859Z,14.48
2018-06-28T04:24:53.890Z,14.53
2018-06-28T04:25:53.842Z,14.49
2018-06-28T04:26:53.836Z,14.59
2018-06-28T04:27:53.820Z,14.69
2018-06-28T04:28:53.809Z,14.61
2018-06-28T04:29:53.846Z,14.61
2018-06-28T04:30:53.782Z,14.63
2018-06-28T04:31:53.779Z,14.59
2018-06-28T04:32:53.763Z,14.66
2018-06-28T04:33:53.754Z,14.66
2018-06-28T04:34:53.762Z,14.75
2018-06-28T04:35:53.733Z,14.80
2018-06-28T04:36:53.719Z,14.82
2018-06-28T04:37:53.677Z,14.86
2018-06-28T04:38:53.714Z,14.97
2018-06-28T04:39:53.733Z,14.94
2018-06-28T04:40:53.800Z,15.03
2018-06-28T04:41:53.665Z,15.00
2018-06-28T04:42:53.672Z,14.97
2018-06-28T04:43:53.657Z,15.11
2018-06-28T04:44:53.678Z,15.15
2018-06-28T04:45:53.639Z,15.19
2018-06-28T04:46:53.619Z,15.25
2018-06-28T04:47:53.600Z,15.27
2018-06-28T04:48:53.549Z,15.30
2018-06-28T04:49:53.586Z,15.43
2018-06-28T04:50:53.543Z,15.33
2018-06-28T04:51:53.568Z,15.41
2018-06-28T04:52:53.547Z,15.41
2018-06-28T04:53:53.550Z,15.44
2018-06-28T04:54:53.532Z,15.48
2018-06-28T04:55:53.541Z,15.46
2018-06-28T04:56:53.564Z,15.59
2018-06-28T04:57:53.506Z,15.55
2018-06-28T04:58:53.525Z,15.60
2018-06-28T04:59:53.483Z,15.77
2018-06-28T05:00:53.492Z,15.89
2018-06-28T05:01:53.453Z,16.18
2018-06-28T05:02:53.436Z,16.48
2018-06-28T05:03:53.444Z,16.69
2018-06-28T05:04:53.421Z,16.69
2018-06-28T05:05:53.436Z,16.66
2018-06-28T05:06:53.400Z,16.57
2018-06-28T05:07:53.396Z,16.51
2018-06-28T05:08:53.371Z,16.44
2018-06-28T05:09:53.314Z,16.40
2018-06-28T05:10:53.371Z,16.44
2018-06-28T05:11:53.333Z,16.37
2018-06-28T05:12:53.424Z,16.36
2018-06-28T05:13:53.328Z,16.32
2018-06-28T05:14:53.301Z,16.44
2018-06-28T05:15:53.316Z,16.51
2018-06-28T05:16:53.229Z,16.66
2018-06-28T05:17:53.261Z,16.87
2018-06-28T05:18:53.258Z,17.15
2018-06-28T05:19:53.246Z,17.21
2018-06-28T05:20:53.319Z,17.07
2018-06-28T05:21:53.230Z,17.06
2018-06-28T05:22:53.253Z,16.98
2018-06-28T05:23:53.217Z,16.91
2018-06-28T05:24:53.191Z,16.95
2018-06-28T05:25:53.208Z,16.90
2018-06-28T05:26:53.165Z,16.84
2018-06-28T05:27:53.191Z,16.91
2018-06-28T05:28:53.157Z,16.87
2018-06-28T05:29:53.131Z,16.92
2018-06-28T05:30:53.152Z,16.92
2018-06-28T05:31:53.114Z,16.95
2018-06-28T05:32:53.106Z,16.95
2018-06-28T05:33:53.093Z,16.92
2018-06-28T05:34:53.128Z,16.92
2018-06-28T05:35:53.093Z,17.02
2018-06-28T05:36:53.018Z,17.07
2018-06-28T05:37:53.044Z,17.17
2018-06-28T05:38:53.038Z,17.25
2018-06-28T05:39:53.035Z,17.36
2018-06-28T05:40:53.056Z,17.32
2018-06-28T05:41:53.002Z,17.46
2018-06-28T05:42:53.000Z,17.68
2018-06-28T05:43:52.982Z,17.94
2018-06-28T05:44:52.978Z,17.95
2018-06-28T05:45:52.987Z,17.91
2018-06-28T05:46:52.966Z,17.76
2018-06-28T05:47:52.941Z,17.74
2018-06-28T05:48:52.928Z,17.68
2018-06-28T05:49:52.917Z,17.66
2018-06-28T05:50:52.930Z,17.65
2018-06-28T05:51:52.899Z,17.58
2018-06-28T05:52:52.927Z,17.63
2018-06-28T05:53:52.884Z,17.73
2018-06-28T05:54:52.859Z,17.74
2018-06-28T05:55:52.888Z,17.80
2018-06-28T05:56:52.837Z,17.84
2018-06-28T05:57:52.827Z,17.77
2018-06-28T05:58:52.836Z,17.95
2018-06-28T05:59:52.807Z,17.94
2018-06-28T06:00:52.820Z,17.94
2018-06-28T06:01:52.783Z,17.91
2018-06-28T06:02:52.777Z,18.07
2018-06-28T06:03:52.772Z,18.04
2018-06-28T06:04:52.751Z,18.14
2018-06-28T06:05:52.741Z,18.16
2018-06-28T06:06:52.763Z,18.23
2018-06-28T06:07:52.672Z,18.26
2018-06-28T06:08:52.665Z,18.35
2018-06-28T06:09:52.696Z,18.42
2018-06-28T06:10:52.806Z,18.46
2018-06-28T06:11:52.698Z,18.59
2018-06-28T06:12:52.665Z,18.59
2018-06-28T06:13:52.622Z,18.75
2018-06-28T06:14:52.639Z,18.75
2018-06-28T06:15:52.626Z,18.83
2018-06-28T06:16:52.731Z,18.84
2018-06-28T06:17:52.608Z,18.89
2018-06-28T06:18:52.598Z,18.89
2018-06-28T06:19:52.602Z,18.91
2018-06-28T06:20:52.574Z,19.07
2018-06-28T06:21:52.588Z,19.12
2018-06-28T06:22:52.556Z,19.23
2018-06-28T06:23:52.545Z,19.20
2018-06-28T06:24:52.532Z,19.25
2018-06-28T06:25:52.521Z,19.27
2018-06-28T06:26:52.535Z,19.34
2018-06-28T06:27:52.455Z,19.40
2018-06-28T06:28:52.496Z,19.67
2018-06-28T06:29:52.495Z,20.10
2018-06-28T06:30:52.467Z,20.75
2018-06-28T06:31:52.472Z,21.48
2018-06-28T06:32:52.448Z,22.33
2018-06-28T06:33:52.450Z,23.21
2018-06-28T06:34:52.425Z,24.21
2018-06-28T06:35:52.415Z,25.17
2018-06-28T06:36:52.447Z,25.79
2018-06-28T06:37:52.391Z,26.47
2018-06-28T06:38:52.386Z,26.78
2018-06-28T06:39:52.375Z,27.24
2018-06-28T06:40:52.354Z,27.65
2018-06-28T06:41:52.451Z,27.78
2018-06-28T06:42:52.336Z,28.21
2018-06-28T06:43:52.338Z,28.48
2018-06-28T06:44:52.326Z,28.76
2018-06-28T06:45:52.311Z,28.77
2018-06-28T06:46:52.320Z,29.17
2018-06-28T06:47:52.284Z,28.91
2018-06-28T06:48:52.330Z,28.79
2018-06-28T06:49:52.271Z,28.95
2018-06-28T06:50:52.271Z,29.08
2018-06-28T06:51:52.278Z,29.35
2018-06-28T06:52:52.261Z,29.86
2018-06-28T06:53:52.227Z,30.06
2018-06-28T06:54:52.210Z,29.66
2018-06-28T06:55:52.198Z,29.60
2018-06-28T06:56:52.218Z,29.94
2018-06-28T06:57:52.174Z,30.51
2018-06-28T06:58:52.171Z,31.03
2018-06-28T06:59:52.158Z,31.12
2018-06-28T07:00:52.148Z,31.41
2018-06-28T07:01:52.153Z,31.68
2018-06-28T07:02:52.130Z,31.78
2018-06-28T07:03:52.120Z,32.21
2018-06-28T07:04:52.117Z,32.41
2018-06-28T07:05:52.096Z,32.46
2018-06-28T07:06:52.109Z,32.59
2018-06-28T07:07:52.072Z,32.62
2018-06-28T07:08:52.067Z,32.91
2018-06-28T07:09:52.027Z,33.05
2018-06-28T07:10:52.044Z,32.69
2018-06-28T07:11:52.054Z,32.47
2018-06-28T07:12:51.993Z,32.71
2018-06-28T07:13:52.027Z,32.25
2018-06-28T07:14:52.007Z,31.82
2018-06-28T07:15:51.955Z,32.07
2018-06-28T07:16:52.011Z,32.16
2018-06-28T07:17:51.990Z,32.32
2018-06-28T07:18:51.965Z,32.51
2018-06-28T07:19:51.956Z,32.77
2018-06-28T07:20:51.948Z,33.00
2018-06-28T07:21:51.962Z,33.33
2018-06-28T07:22:51.966Z,33.29
2018-06-28T07:23:51.923Z,33.47
2018-06-28T07:24:51.900Z,33.59
2018-06-28T07:25:52.000Z,33.21
2018-06-28T07:26:51.925Z,32.95
2018-06-28T07:27:51.868Z,32.91
2018-06-28T07:28:52.590Z,33.11
2018-06-28T07:29:51.857Z,33.20
2018-06-28T07:30:51.844Z,33.17
2018-06-28T07:31:51.855Z,33.21
2018-06-28T07:32:51.800Z,33.31
2018-06-28T07:33:51.810Z,33.34
2018-06-28T07:34:51.797Z,33.45
2018-06-28T07:35:51.791Z,33.53
2018-06-28T07:36:51.816Z,33.71
2018-06-28T07:37:51.806Z,33.97
2018-06-28T07:38:51.764Z,34.27
2018-06-28T07:39:51.746Z,34.56
2018-06-28T07:40:51.770Z,34.65
2018-06-28T07:41:51.687Z,34.65
2018-06-28T07:42:51.746Z,34.56
2018-06-28T07:43:51.743Z,34.58
2018-06-28T07:44:51.697Z,34.61
2018-06-28T07:45:51.694Z,34.40
2018-06-28T07:46:51.720Z,34.19
2018-06-28T07:47:51.712Z,34.31
2018-06-28T07:48:51.665Z,34.19
2018-06-28T07:49:51.603Z,34.26
2018-06-28T07:50:51.672Z,33.50
2018-06-28T07:51:51.624Z,33.37
2018-06-28T07:52:51.681Z,33.52
2018-06-28T07:53:51.618Z,33.99
2018-06-28T07:54:51.593Z,33.53
2018-06-28T07:55:51.586Z,32.51
2018-06-28T07:56:51.572Z,31.99
2018-06-28T07:57:51.585Z,31.71
2018-06-28T07:58:51.578Z,31.97
2018-06-28T07:59:51.546Z,32.25
2018-06-28T08:00:51.533Z,32.72
2018-06-28T08:01:51.521Z,32.81
2018-06-28T08:02:51.547Z,33.12
2018-06-28T08:03:51.457Z,33.22
2018-06-28T08:04:51.494Z,33.06
2018-06-28T08:05:51.623Z,33.55
2018-06-28T08:06:51.469Z,34.03
2018-06-28T08:07:51.483Z,34.06
2018-06-28T08:08:51.451Z,33.49
2018-06-28T08:09:51.463Z,33.77
2018-06-28T08:10:51.426Z,34.05
2018-06-28T08:11:51.428Z,34.33
2018-06-28T08:12:51.442Z,34.56
2018-06-28T08:13:51.404Z,34.60
2018-06-28T08:14:51.399Z,34.80
2018-06-28T08:15:51.373Z,34.38
2018-06-28T08:16:51.368Z,34.50
2018-06-28T08:17:51.377Z,34.61
2018-06-28T08:18:51.353Z,34.48
2018-06-28T08:19:51.339Z,34.00
2018-06-28T08:20:51.331Z,33.06
2018-06-28T08:21:51.285Z,32.88
2018-06-28T08:22:51.327Z,33.03
2018-06-28T08:23:51.310Z,33.17
2018-06-28T08:24:51.289Z,33.06
2018-06-28T08:25:51.241Z,32.81
2018-06-28T08:26:51.311Z,32.27
2018-06-28T08:27:51.285Z,32.22
2018-06-28T08:28:51.257Z,32.44
2018-06-28T08:29:51.260Z,32.76
2018-06-28T08:30:51.225Z,33.02
2018-06-28T08:31:51.216Z,32.95
2018-06-28T08:32:51.231Z,32.76
2018-06-28T08:33:51.199Z,32.91
2018-06-28T08:34:51.199Z,33.20
2018-06-28T08:35:51.229Z,33.49
2018-06-28T08:36:51.182Z,32.95
2018-06-28T08:37:51.183Z,32.47
2018-06-28T08:38:51.144Z,31.88
2018-06-28T08:39:51.140Z,32.03
2018-06-28T08:40:51.123Z,31.91
2018-06-28T08:41:51.115Z,31.97
2018-06-28T08:42:51.142Z,32.07
2018-06-28T08:43:51.096Z,32.03
2018-06-28T08:44:51.079Z,32.21
2018-06-28T08:45:51.032Z,31.68
2018-06-28T08:46:51.062Z,31.04
2018-06-28T08:47:51.049Z,30.66
2018-06-28T08:48:51.078Z,29.99
2018-06-28T08:49:51.036Z,29.58
2018-06-28T08:50:51.042Z,29.54
2018-06-28T08:51:51.019Z,28.83
2018-06-28T08:52:50.995Z,28.72
2018-06-28T08:53:51.009Z,28.69
2018-06-28T08:54:50.931Z,28.67
2018-06-28T08:55:51.216Z,28.61
2018-06-28T08:56:51.215Z,28.79
2018-06-28T08:57:50.997Z,28.72
2018-06-28T08:58:50.921Z,28.54
2018-06-28T08:59:50.924Z,28.20
2018-06-28T09:00:50.886Z,27.83
2018-06-28T09:01:51.013Z,27.83
2018-06-28T09:02:50.907Z,27.81
2018-06-28T09:03:50.904Z,27.74
2018-06-28T09:04:50.881Z,27.68
2018-06-28T09:05:50.892Z,28.05
2018-06-28T09:06:50.850Z,28.21
2018-06-28T09:07:50.840Z,28.36
2018-06-28T09:08:50.813Z,28.50
2018-06-28T09:09:50.826Z,28.45
2018-06-28T09:10:50.810Z,27.77
2018-06-28T09:11:50.797Z,27.53
2018-06-28T09:12:50.751Z,27.59
2018-06-28T09:13:50.830Z,27.24
2018-06-28T09:14:50.775Z,27.21
2018-06-28T09:15:50.761Z,27.28
2018-06-28T09:16:50.750Z,27.43
2018-06-28T09:17:50.852Z,27.76
2018-06-28T09:18:50.750Z,27.88
2018-06-28T09:19:50.727Z,28.01
2018-06-28T09:20:50.711Z,28.17
2018-06-28T09:21:50.693Z,28.18
2018-06-28T09:22:50.736Z,28.38
2018-06-28T09:23:50.697Z,28.28
2018-06-28T09:24:50.665Z,28.20
2018-06-28T09:25:50.774Z,27.98
2018-06-28T09:26:50.603Z,27.86
2018-06-28T09:27:50.630Z,27.88
2018-06-28T09:28:50.664Z,27.61
2018-06-28T09:29:50.621Z,27.55
2018-06-28T09:30:50.600Z,27.66
2018-06-28T09:31:50.590Z,27.71
2018-06-28T09:32:50.585Z,27.71
2018-06-28T09:33:50.602Z,27.78
2018-06-28T09:34:50.565Z,27.87
2018-06-28T09:35:50.571Z,28.05
2018-06-28T09:36:50.534Z,28.27
2018-06-28T09:37:50.531Z,28.35
2018-06-28T09:38:50.510Z,28.40
2018-06-28T09:39:50.512Z,28.39
2018-06-28T09:40:50.498Z,28.27
2018-06-28T09:41:50.494Z,28.36
2018-06-28T09:42:50.480Z,28.33
2018-06-28T09:43:50.485Z,28.09
2018-06-28T09:44:50.545Z,28.09
2018-06-28T09:45:50.448Z,28.18
2018-06-28T09:46:50.440Z,28.18
2018-06-28T09:47:50.433Z,28.15
2018-06-28T09:48:50.432Z,28.38
2018-06-28T09:49:50.405Z,28.40
2018-06-28T09:50:50.364Z,28.42
2018-06-28T09:51:50.408Z,28.43
2018-06-28T09:52:50.369Z,28.43
2018-06-28T09:53:50.389Z,28.28
2018-06-28T09:54:50.412Z,28.09
2018-06-28T09:55:50.349Z,28.06
2018-06-28T09:56:50.287Z,28.15
2018-06-28T09:57:50.295Z,28.35
2018-06-28T09:58:50.347Z,28.38
2018-06-28T09:59:50.349Z,28.23
2018-06-28T10:00:50.344Z,28.40
2018-06-28T10:01:50.240Z,28.30
2018-06-28T10:02:50.229Z,28.23
2018-06-28T10:03:50.292Z,28.42
2018-06-28T10:04:50.250Z,28.38
2018-06-28T10:05:50.236Z,28.35
2018-06-28T10:06:50.257Z,28.50
2018-06-28T10:07:50.173Z,28.58
2018-06-28T10:08:50.232Z,28.95
2018-06-28T10:09:50.215Z,28.89
2018-06-28T10:10:50.192Z,29.12
2018-06-28T10:11:50.172Z,29.36
2018-06-28T10:12:50.159Z,29.51
2018-06-28T10:13:50.184Z,29.21
2018-06-28T10:14:50.153Z,29.20
2018-06-28T10:15:50.147Z,29.17
2018-06-28T10:16:50.132Z,29.30
2018-06-28T10:17:50.110Z,29.30
2018-06-28T10:18:50.160Z,29.21
2018-06-28T10:19:50.131Z,29.26
2018-06-28T10:20:50.073Z,29.41
2018-06-28T10:21:50.156Z,29.60
2018-06-28T10:22:50.063Z,29.76
2018-06-28T10:23:50.054Z,29.79
2018-06-28T10:24:50.058Z,29.58
2018-06-28T10:25:50.043Z,29.25
2018-06-28T10:26:50.024Z,29.05
2018-06-28T10:27:50.005Z,28.83
2018-06-28T10:28:49.947Z,28.52
2018-06-28T10:29:50.010Z,28.36
2018-06-28T10:30:49.972Z,28.30
2018-06-28T10:31:49.969Z,28.09
2018-06-28T10:32:50.049Z,27.99
2018-06-28T10:33:49.935Z,27.42
2018-06-28T10:34:49.928Z,27.25
2018-06-28T10:35:49.921Z,27.20
2018-06-28T10:36:49.907Z,27.20
2018-06-28T10:37:49.859Z,26.91
2018-06-28T10:38:49.892Z,26.97
2018-06-28T10:39:49.906Z,26.83
2018-06-28T10:40:49.867Z,27.08
2018-06-28T10:41:49.865Z,27.13
2018-06-28T10:42:49.843Z,27.28
2018-06-28T10:43:49.888Z,27.34
2018-06-28T10:44:49.860Z,27.35
2018-06-28T10:45:49.811Z,27.58
2018-06-28T10:46:49.800Z,27.83
2018-06-28T10:47:49.798Z,28.08
2018-06-28T10:48:49.823Z,28.45
2018-06-28T10:49:49.804Z,28.60
2018-06-28T10:50:49.760Z,28.79
2018-06-28T10:51:49.764Z,29.00
2018-06-28T10:52:49.737Z,28.82
2018-06-28T10:53:49.807Z,28.76
2018-06-28T10:54:49.745Z,28.65
2018-06-28T10:55:49.722Z,28.69
2018-06-28T10:56:49.710Z,28.60
2018-06-28T10:57:49.645Z,28.18
2018-06-28T10:58:49.678Z,27.90
2018-06-28T10:59:49.721Z,27.78
2018-06-28T11:00:49.656Z,27.74
2018-06-28T11:01:49.733Z,27.69
2018-06-28T11:02:49.642Z,27.49
2018-06-28T11:03:49.637Z,27.33
2018-06-28T11:04:49.643Z,27.21
2018-06-28T11:05:49.601Z,27.12
2018-06-28T11:06:49.588Z,27.03
2018-06-28T11:07:49.612Z,26.87
2018-06-28T11:08:49.583Z,26.93
2018-06-28T11:09:49.580Z,26.76
2018-06-28T11:10:49.552Z,26.76
2018-06-28T11:11:49.540Z,26.68
2018-06-28T11:12:49.523Z,26.73
2018-06-28T11:13:49.523Z,26.97
2018-06-28T11:14:49.531Z,27.11
2018-06-28T11:15:49.604Z,27.31
2018-06-28T11:16:49.448Z,27.40
2018-06-28T11:17:49.482Z,27.53
2018-06-28T11:18:49.468Z,27.59
2018-06-28T11:19:49.499Z,27.58
2018-06-28T11:20:49.445Z,27.50
2018-06-28T11:21:49.435Z,27.59
2018-06-28T11:22:49.437Z,27.46
2018-06-28T11:23:49.367Z,27.40
2018-06-28T11:24:49.441Z,27.46
2018-06-28T11:25:49.393Z,27.55
2018-06-28T11:26:49.402Z,27.61
2018-06-28T11:27:49.364Z,27.62
2018-06-28T11:28:49.354Z,27.74
2018-06-28T11:29:49.370Z,27.77
2018-06-28T11:30:49.309Z,27.76
2018-06-28T11:31:49.336Z,27.81
2018-06-28T11:32:49.318Z,27.86
2018-06-28T11:33:49.263Z,28.13
2018-06-28T11:34:49.309Z,28.35
2018-06-28T11:35:49.296Z,28.45
2018-06-28T11:36:49.268Z,28.52
2018-06-28T11:37:49.217Z,28.67
2018-06-28T11:38:49.246Z,28.64
2018-06-28T11:39:49.270Z,28.58
2018-06-28T11:40:49.229Z,28.46
2018-06-28T11:41:49.224Z,28.38
2018-06-28T11:42:49.225Z,28.33
2018-06-28T11:43:49.195Z,28.20
2018-06-28T11:44:49.220Z,28.09
2018-06-28T11:45:49.187Z,28.17
2018-06-28T11:46:49.163Z,28.14
2018-06-28T11:47:49.166Z,28.01
2018-06-28T11:48:49.142Z,28.02
2018-06-28T11:49:49.137Z,27.98
2018-06-28T11:50:49.152Z,27.87
2018-06-28T11:51:49.111Z,27.80
2018-06-28T11:52:49.108Z,27.78
2018-06-28T11:53:49.100Z,27.87
2018-06-28T11:54:49.110Z,27.84
2018-06-28T11:55:49.096Z,27.88
2018-06-28T11:56:49.058Z,27.95
2018-06-28T11:57:49.060Z,27.91
2018-06-28T11:58:49.039Z,28.02
2018-06-28T11:59:49.037Z,28.17
2018-06-28T12:00:49.042Z,28.21
2018-06-28T12:01:49.037Z,28.13
2018-06-28T12:02:48.950Z,28.14
2018-06-28T12:03:48.992Z,28.18
2018-06-28T12:04:48.975Z,28.28
2018-06-28T12:05:48.945Z,28.39
2018-06-28T12:06:48.913Z,28.39
2018-06-28T12:07:48.957Z,28.28
2018-06-28T12:08:48.948Z,28.09
2018-06-28T12:09:48.923Z,27.99
2018-06-28T12:10:49.079Z,28.20
2018-06-28T12:11:48.907Z,28.17
2018-06-28T12:12:48.894Z,28.14
2018-06-28T12:13:48.904Z,28.18
2018-06-28T12:14:48.876Z,28.21
2018-06-28T12:15:48.886Z,28.33
2018-06-28T12:16:48.850Z,28.42
2018-06-28T12:17:48.802Z,28.58
2018-06-28T12:18:48.796Z,28.54
2018-06-28T12:19:48.827Z,28.33
2018-06-28T12:20:48.834Z,28.28
2018-06-28T12:21:48.752Z,28.28
2018-06-28T12:22:48.784Z,28.39
2018-06-28T12:23:48.783Z,28.27
2018-06-28T12:24:48.764Z,28.36
2018-06-28T12:25:48.777Z,28.30
2018-06-28T12:26:48.768Z,28.28
2018-06-28T12:27:48.734Z,28.18
2018-06-28T12:28:48.723Z,28.09
2018-06-28T12:29:48.774Z,27.96
2018-06-28T12:30:48.723Z,27.76
2018-06-28T12:31:48.694Z,27.65
2018-06-28T12:32:48.643Z,27.63
2018-06-28T12:33:48.704Z,27.59
2018-06-28T12:34:48.660Z,27.74
2018-06-28T12:35:48.681Z,27.71
2018-06-28T12:36:48.652Z,27.84
2018-06-28T12:37:48.640Z,27.91
2018-06-28T12:38:48.620Z,27.91
2018-06-28T12:39:48.607Z,28.14
2018-06-28T12:40:48.634Z,28.39
2018-06-28T12:41:48.595Z,28.50
2018-06-28T12:42:48.663Z,28.55
2018-06-28T12:43:48.522Z,28.60
2018-06-28T12:44:48.564Z,28.61
2018-06-28T12:45:48.570Z,28.80
2018-06-28T12:46:48.537Z,28.67
2018-06-28T12:47:48.524Z,28.58
2018-06-28T12:48:48.524Z,28.73
